Time;durP1;ratioP1;P1;durP2;ratioP2;P2;SDS_P1;SDS_P2;PMS_P1;PMS_P2;Temp;Humidity;BMP_temperature;BMP_pressure;BME280_temperature;BME280_humidity;BME280_pressure;Samples;Min_cycle;Max_cycle;Signal;HPM_P1;HPM_P2
2022/10/10 00:02:11;;;;;;;34.30;26.57;;;;;;;12.73;100.00;95409.13;5132288;27;20195;-74
2022/10/10 00:04:38;;;;;;;35.17;26.00;;;;;;;12.75;100.00;95413.13;5132294;27;20199;-75
2022/10/10 00:07:05;;;;;;;39.73;26.80;;;;;;;12.78;100.00;95417.13;5132327;27;20227;-74
2022/10/10 00:09:31;;;;;;;37.10;26.83;;;;;;;12.79;100.00;95421.31;5132308;27;20200;-75
2022/10/10 00:11:59;;;;;;;45.43;26.23;;;;;;;12.77;100.00;95418.94;5132032;27;20206;-74
2022/10/10 00:14:26;;;;;;;37.47;25.87;;;;;;;12.77;100.00;95429.38;5132323;27;20208;-74
2022/10/10 00:16:53;;;;;;;37.03;27.20;;;;;;;12.80;100.00;95430.75;5131349;27;20202;-74
2022/10/10 00:19:20;;;;;;;38.87;26.33;;;;;;;12.74;100.00;95429.00;5132308;27;20207;-74
2022/10/10 00:21:47;;;;;;;34.90;26.83;;;;;;;12.71;100.00;95425.00;5131580;27;20203;-73
2022/10/10 00:24:13;;;;;;;33.37;25.60;;;;;;;12.73;100.00;95422.97;5131613;27;20295;-74
2022/10/10 00:26:40;;;;;;;35.97;26.13;;;;;;;12.73;100.00;95409.91;5131743;27;20223;-73
2022/10/10 00:29:08;;;;;;;39.43;27.57;;;;;;;12.76;100.00;95409.50;5131365;27;20230;-74
2022/10/10 00:31:35;;;;;;;38.77;26.53;;;;;;;12.73;100.00;95404.72;5131229;27;20566;-75
2022/10/10 00:34:02;;;;;;;42.30;27.30;;;;;;;12.73;100.00;95409.91;5131875;27;20661;-75
2022/10/10 00:36:29;;;;;;;42.40;26.80;;;;;;;12.73;100.00;95417.75;5131824;27;20191;-75
2022/10/10 00:38:56;;;;;;;38.60;26.83;;;;;;;12.68;100.00;95420.19;5130732;27;20204;-78
2022/10/10 00:41:25;;;;;;;34.40;26.07;;;;;;;12.62;100.00;95415.81;5131938;27;20261;-78
2022/10/10 00:44:08;;;;;;;39.13;26.00;;;;;;;12.71;100.00;95417.16;5131003;27;20203;-78
2022/10/10 00:46:36;;;;;;;38.10;26.57;;;;;;;12.74;100.00;95411.53;5131607;27;20210;-75
2022/10/10 00:49:05;;;;;;;40.00;27.20;;;;;;;12.70;100.00;95420.00;5131091;27;20304;-75
2022/10/10 00:51:33;;;;;;;36.57;27.33;;;;;;;12.66;100.00;95409.19;5130655;27;20203;-75
2022/10/10 00:54:02;;;;;;;34.13;27.27;;;;;;;12.66;100.00;95411.00;5130991;27;20202;-75
2022/10/10 00:56:33;;;;;;;36.20;27.23;;;;;;;12.56;100.00;95408.84;5129986;27;20195;-75
2022/10/10 00:59:04;;;;;;;39.63;27.17;;;;;;;12.55;100.00;95422.09;5129916;27;20207;-75
2022/10/10 01:01:32;;;;;;;36.43;27.37;;;;;;;12.50;100.00;95422.72;5131805;27;20226;-75
2022/10/10 01:04:00;;;;;;;39.33;27.13;;;;;;;11.97;100.00;95408.41;5128806;27;20213;-75
2022/10/10 01:06:28;;;;;;;38.40;27.33;;;;;;;11.54;100.00;95411.53;5125457;27;20246;-75
2022/10/10 01:08:56;;;;;;;49.00;30.73;;;;;;;11.26;100.00;95408.38;5127846;27;20535;-74
2022/10/10 01:11:41;;;;;;;44.07;29.90;;;;;;;11.31;100.00;95414.56;5130709;27;20709;-74
2022/10/10 01:14:18;;;;;;;43.00;30.57;;;;;;;11.51;100.00;95417.16;5130742;27;20224;-74
2022/10/10 01:16:53;;;;;;;42.60;29.87;;;;;;;11.68;100.00;95422.69;5131338;27;20275;-75
2022/10/10 01:19:47;;;;;;;49.00;31.17;;;;;;;11.75;100.00;95432.13;5125575;27;20210;-75
2022/10/10 01:22:26;;;;;;;37.93;29.07;;;;;;;11.85;100.00;95429.88;5121782;27;20190;-74
2022/10/10 01:25:08;;;;;;;42.40;30.50;;;;;;;11.84;100.00;95415.25;5130361;27;20218;-74
2022/10/10 01:27:41;;;;;;;41.40;29.53;;;;;;;11.92;100.00;95422.81;5130316;27;20242;-74
2022/10/10 01:30:13;;;;;;;40.83;29.33;;;;;;;12.02;100.00;95421.59;5130698;27;20252;-74
2022/10/10 01:32:46;;;;;;;43.07;29.50;;;;;;;12.02;100.00;95427.59;5130352;27;20693;-75
2022/10/10 01:35:43;;;;;;;42.43;30.00;;;;;;;12.03;100.00;95421.41;5131022;27;20203;-74
2022/10/10 01:38:19;;;;;;;42.97;31.27;;;;;;;12.03;100.00;95429.22;5110867;27;20208;-74
2022/10/10 01:40:52;;;;;;;45.20;29.47;;;;;;;12.01;100.00;95427.81;5130340;27;20665;-75
2022/10/10 01:43:20;;;;;;;42.03;30.27;;;;;;;12.02;100.00;95417.19;5130325;27;20206;-74
2022/10/10 01:45:50;;;;;;;43.83;31.43;;;;;;;12.09;100.00;95412.72;5130435;27;20203;-75
2022/10/10 01:48:20;;;;;;;42.57;31.13;;;;;;;12.10;100.00;95414.34;5129976;27;21221;-75
2022/10/10 01:51:04;;;;;;;40.80;30.27;;;;;;;12.07;100.00;95417.34;5130517;27;20207;-76
2022/10/10 01:53:43;;;;;;;42.03;30.37;;;;;;;12.06;100.00;95415.78;5130273;27;20209;-74
2022/10/10 01:56:15;;;;;;;44.53;31.00;;;;;;;11.98;100.00;95420.44;5130537;27;20207;-74
2022/10/10 01:59:07;;;;;;;45.90;32.70;;;;;;;11.99;100.00;95419.41;5130320;27;20214;-74
2022/10/10 02:01:43;;;;;;;43.30;32.53;;;;;;;11.96;100.00;95420.63;5129821;27;20661;-75
2022/10/10 02:04:16;;;;;;;45.37;32.17;;;;;;;11.92;100.00;95422.03;5129106;27;20198;-73
2022/10/10 02:06:47;;;;;;;45.50;32.23;;;;;;;11.91;100.00;95417.84;5129516;28;20254;-74
2022/10/10 02:09:19;;;;;;;45.83;31.80;;;;;;;11.93;100.00;95421.84;5133480;27;20585;-75
2022/10/10 02:11:48;;;;;;;41.33;30.63;;;;;;;12.01;100.00;95425.19;5134160;27;20195;-75
2022/10/10 02:14:20;;;;;;;43.97;30.17;;;;;;;12.00;100.00;95427.03;5133710;27;20740;-74
2022/10/10 02:16:53;;;;;;;38.07;29.53;;;;;;;11.93;100.00;95428.84;5133765;27;20195;-75
2022/10/10 02:19:22;;;;;;;42.60;29.90;;;;;;;11.87;100.00;95425.25;5134470;27;20199;-75
2022/10/10 02:21:52;;;;;;;39.90;29.10;;;;;;;11.90;100.00;95440.47;5133646;27;20621;-75
2022/10/10 02:24:21;;;;;;;40.57;28.57;;;;;;;11.93;100.00;95436.66;5133908;27;20274;-74
2022/10/10 02:26:53;;;;;;;40.27;28.13;;;;;;;11.94;100.00;95436.47;5133710;27;20219;-74
2022/10/10 02:29:25;;;;;;;45.67;28.87;;;;;;;11.93;100.00;95437.47;5133978;27;20527;-74
2022/10/10 02:31:57;;;;;;;37.33;27.07;;;;;;;11.94;100.00;95428.66;5133730;27;20214;-74
2022/10/10 02:34:28;;;;;;;39.87;28.20;;;;;;;11.50;100.00;95431.16;5126868;27;20253;-74
2022/10/10 02:36:58;;;;;;;44.60;28.27;;;;;;;11.18;100.00;95437.22;5133584;27;20550;-74
2022/10/10 02:39:30;;;;;;;58.80;37.90;;;;;;;10.90;100.00;95436.63;5133989;27;20653;-74
2022/10/10 02:41:56;;;;;;;53.80;36.67;;;;;;;10.92;100.00;95432.84;5133494;27;20226;-75
2022/10/10 02:44:25;;;;;;;57.43;35.70;;;;;;;11.06;100.00;95437.03;5133827;27;20223;-77
2022/10/10 02:46:53;;;;;;;56.27;39.43;;;;;;;11.19;100.00;95431.81;5133198;27;20247;-76
2022/10/10 02:49:24;;;;;;;49.07;36.33;;;;;;;11.26;100.00;95435.19;5133496;27;20203;-77
2022/10/10 02:51:51;;;;;;;45.73;35.17;;;;;;;11.37;100.00;95434.59;5125283;27;20195;-76
2022/10/10 02:54:18;;;;;;;46.17;35.27;;;;;;;11.40;100.00;95428.97;5132496;27;20286;-77
2022/10/10 02:56:45;;;;;;;53.73;36.50;;;;;;;11.46;100.00;95431.78;5133404;27;20202;-76
2022/10/10 02:59:11;;;;;;;48.43;34.83;;;;;;;11.52;100.00;95431.75;5133667;27;20210;-77
2022/10/10 03:01:38;;;;;;;47.57;33.73;;;;;;;11.59;100.00;95436.94;5133809;27;20509;-74
2022/10/10 03:04:07;;;;;;;49.43;35.40;;;;;;;11.66;100.00;95432.53;5128587;27;20211;-75
2022/10/10 03:06:34;;;;;;;48.60;35.40;;;;;;;11.72;100.00;95439.53;5133245;27;20203;-75
2022/10/10 03:09:01;;;;;;;52.77;36.53;;;;;;;11.70;100.00;95431.13;5133007;27;20566;-75
2022/10/10 03:11:27;;;;;;;53.03;38.20;;;;;;;11.76;100.00;95435.53;5133435;27;20573;-75
2022/10/10 03:13:54;;;;;;;54.10;35.93;;;;;;;11.73;100.00;95438.53;5133692;27;20276;-76
2022/10/10 03:16:21;;;;;;;48.33;36.20;;;;;;;11.70;100.00;95434.53;5133458;27;20275;-76
2022/10/10 03:18:48;;;;;;;51.60;35.97;;;;;;;11.75;100.00;95439.13;5133057;27;20213;-77
2022/10/10 03:21:16;;;;;;;54.13;37.63;;;;;;;11.72;100.00;95440.34;5132504;27;20206;-76
2022/10/10 03:23:43;;;;;;;52.63;36.10;;;;;;;11.78;100.00;95446.53;5132832;27;20199;-76
2022/10/10 03:26:10;;;;;;;45.97;34.00;;;;;;;11.73;100.00;95443.75;5133159;27;20205;-76
2022/10/10 03:28:37;;;;;;;48.67;35.03;;;;;;;11.65;100.00;95449.16;5133072;27;20234;-73
2022/10/10 03:31:03;;;;;;;58.57;37.17;;;;;;;11.62;100.00;95452.97;5132871;27;20210;-73
2022/10/10 03:33:30;;;;;;;60.57;38.33;;;;;;;11.69;100.00;95452.94;5132613;27;20191;-72
2022/10/10 03:35:57;;;;;;;61.27;38.13;;;;;;;11.66;100.00;95455.97;5126238;27;20196;-73
2022/10/10 03:38:25;;;;;;;64.20;39.03;;;;;;;11.58;100.00;95456.16;5132161;27;20195;-75
2022/10/10 03:40:52;;;;;;;61.57;38.37;;;;;;;11.55;100.00;95446.97;5132713;27;20199;-73
2022/10/10 03:43:19;;;;;;;75.13;39.83;;;;;;;11.55;100.00;95448.75;5132832;27;20203;-74
2022/10/10 03:45:47;;;;;;;63.33;37.13;;;;;;;11.52;100.00;95454.38;5132746;27;20294;-74
2022/10/10 03:48:14;;;;;;;56.53;37.07;;;;;;;11.55;100.00;95454.78;5132681;27;20687;-74
2022/10/10 03:50:41;;;;;;;54.97;35.97;;;;;;;11.47;100.00;95447.19;5132395;27;20210;-73
2022/10/10 03:53:08;;;;;;;57.73;37.43;;;;;;;11.44;100.00;95452.78;5132038;27;20200;-74
2022/10/10 03:55:39;;;;;;;56.03;34.97;;;;;;;11.46;100.00;95455.22;5132494;27;20204;-74
2022/10/10 03:58:06;;;;;;;57.63;35.10;;;;;;;11.48;100.00;95455.78;5132316;27;20203;-77
2022/10/10 04:00:32;;;;;;;55.70;34.57;;;;;;;11.47;100.00;95454.19;5129718;27;20212;-75
2022/10/10 04:02:59;;;;;;;53.23;35.80;;;;;;;11.28;100.00;95448.81;5128459;27;20218;-74
2022/10/10 04:05:26;;;;;;;50.83;33.93;;;;;;;10.91;100.00;95446.81;5132309;27;20207;-74
2022/10/10 04:07:53;;;;;;;52.80;35.27;;;;;;;10.48;100.00;95453.38;5131610;27;20227;-75
2022/10/10 04:10:20;;;;;;;55.17;38.53;;;;;;;10.23;100.00;95451.34;5131873;27;20195;-74
2022/10/10 04:12:48;;;;;;;60.77;38.20;;;;;;;10.35;100.00;95450.78;5132082;27;20195;-75
2022/10/10 04:15:15;;;;;;;57.50;38.03;;;;;;;10.45;100.00;95453.78;5127379;27;20283;-74
2022/10/10 04:17:42;;;;;;;53.67;38.07;;;;;;;10.61;100.00;95453.41;5117464;27;20203;-77
2022/10/10 04:20:09;;;;;;;59.57;40.07;;;;;;;10.72;100.00;95463.22;5127548;27;20215;-73
2022/10/10 04:22:36;;;;;;;65.50;42.87;;;;;;;10.76;100.00;95454.03;5131960;27;20618;-74
2022/10/10 04:25:03;;;;;;;67.27;44.63;;;;;;;10.88;100.00;95459.44;5132565;27;20196;-73
2022/10/10 04:27:30;;;;;;;88.83;51.90;;;;;;;10.94;100.00;95451.63;5102516;27;20219;-74
2022/10/10 04:29:58;;;;;;;156.97;113.07;;;;;;;10.96;100.00;95459.25;5131724;27;20574;-74
2022/10/10 04:32:25;;;;;;;180.27;129.87;;;;;;;10.93;100.00;95446.66;5130999;27;20584;-73
2022/10/10 04:34:52;;;;;;;196.27;136.93;;;;;;;10.99;100.00;95454.44;5131536;27;20677;-74
2022/10/10 04:37:19;;;;;;;200.60;138.97;;;;;;;10.98;100.00;95454.63;5130518;27;20610;-73
2022/10/10 04:39:45;;;;;;;206.17;143.77;;;;;;;10.98;100.00;95450.25;5130876;27;20210;-74
2022/10/10 04:42:12;;;;;;;216.60;147.40;;;;;;;11.05;100.00;95456.25;5130907;27;20215;-72
2022/10/10 04:44:39;;;;;;;219.00;152.93;;;;;;;10.99;100.00;95454.44;5131259;27;20203;-74
2022/10/10 04:47:07;;;;;;;218.67;146.57;;;;;;;11.01;100.00;95459.44;5130583;27;20207;-78
2022/10/10 04:49:34;;;;;;;200.27;139.77;;;;;;;11.11;100.00;95463.22;5130812;27;20238;-77
2022/10/10 04:52:01;;;;;;;198.73;133.20;;;;;;;11.14;100.00;95464.66;5130363;27;20207;-71
2022/10/10 04:54:28;;;;;;;195.27;126.30;;;;;;;11.14;100.00;95457.63;5130749;27;20271;-72
2022/10/10 04:56:55;;;;;;;155.30;107.63;;;;;;;11.14;100.00;95464.66;5130153;27;20207;-73
2022/10/10 04:59:21;;;;;;;160.17;105.90;;;;;;;11.12;100.00;95462.25;5130037;27;20192;-73
2022/10/10 05:01:48;;;;;;;189.70;121.77;;;;;;;11.19;100.00;95467.44;5130403;27;20215;-73
2022/10/10 05:04:16;;;;;;;194.83;129.27;;;;;;;11.19;100.00;95470.84;5128951;27;20351;-74
2022/10/10 05:06:43;;;;;;;200.10;124.50;;;;;;;11.23;100.00;95473.84;5123607;27;20203;-72
2022/10/10 05:09:10;;;;;;;204.33;127.90;;;;;;;11.23;100.00;95469.44;5123636;27;20314;-73
2022/10/10 05:11:37;;;;;;;139.27;85.80;;;;;;;11.28;100.00;95467.03;5129853;27;20211;-73
2022/10/10 05:14:04;;;;;;;136.57;86.70;;;;;;;11.32;100.00;95470.81;5119694;27;20272;-72
2022/10/10 05:16:30;;;;;;;144.43;87.60;;;;;;;11.39;100.00;95476.84;5126756;27;20199;-73
2022/10/10 05:18:57;;;;;;;134.00;83.10;;;;;;;11.37;100.00;95480.63;5129456;27;20799;-73
2022/10/10 05:21:25;;;;;;;135.13;88.03;;;;;;;11.37;100.00;95478.00;5123337;27;20267;-73
2022/10/10 05:23:52;;;;;;;143.10;87.07;;;;;;;11.47;100.00;95485.41;5130547;27;20214;-72
2022/10/10 05:26:19;;;;;;;122.77;72.70;;;;;;;11.24;100.00;95485.84;5130055;27;20205;-73
2022/10/10 05:28:47;;;;;;;107.17;66.77;;;;;;;10.76;100.00;95490.44;5130262;27;20257;-73
2022/10/10 05:31:14;;;;;;;80.23;52.90;;;;;;;10.48;100.00;95495.78;5130131;27;20226;-73
2022/10/10 05:33:40;;;;;;;115.60;69.93;;;;;;;10.59;100.00;95489.22;5124118;27;20200;-73
2022/10/10 05:36:10;;;;;;;150.40;89.70;;;;;;;10.74;100.00;95490.63;5128551;27;20210;-73
2022/10/10 05:38:39;;;;;;;172.77;114.47;;;;;;;10.83;100.00;95489.44;5130446;27;20218;-74
2022/10/10 05:41:07;;;;;;;155.57;102.63;;;;;;;11.00;100.00;95496.84;5130416;27;20298;-74
2022/10/10 05:43:34;;;;;;;84.07;49.90;;;;;;;11.01;100.00;95499.25;5129810;27;20313;-73
2022/10/10 05:46:02;;;;;;;69.07;41.23;;;;;;;11.13;100.00;95507.28;5130519;27;20707;-73
2022/10/10 05:48:29;;;;;;;56.13;36.53;;;;;;;11.26;100.00;95502.84;5129801;27;20597;-75
2022/10/10 05:50:57;;;;;;;47.37;32.80;;;;;;;11.27;100.00;95509.69;5130230;27;20199;-73
2022/10/10 05:53:25;;;;;;;53.33;31.10;;;;;;;11.45;100.00;95505.66;5129742;27;20206;-75
2022/10/10 05:55:54;;;;;;;44.03;29.90;;;;;;;11.57;100.00;95511.84;5130400;27;20203;-73
2022/10/10 05:58:21;;;;;;;42.50;30.17;;;;;;;11.61;100.00;95507.81;5130237;27;20203;-74
2022/10/10 06:00:48;;;;;;;44.57;29.80;;;;;;;11.67;100.00;95517.44;5129945;27;20658;-72
2022/10/10 06:03:16;;;;;;;45.90;33.20;;;;;;;11.66;100.00;95521.84;5129772;28;20207;-73
2022/10/10 06:05:43;;;;;;;52.60;35.27;;;;;;;11.63;100.00;95517.03;5130140;27;20676;-74
2022/10/10 06:08:11;;;;;;;60.57;36.53;;;;;;;11.54;100.00;95515.66;5130311;27;20215;-74
2022/10/10 06:10:39;;;;;;;57.73;37.77;;;;;;;11.59;100.00;95518.47;5127254;27;20214;-74
2022/10/10 06:13:07;;;;;;;59.70;38.47;;;;;;;11.72;100.00;95521.06;5128645;28;20610;-74
2022/10/10 06:15:34;;;;;;;55.60;39.43;;;;;;;11.84;100.00;95518.63;5130324;27;20203;-72
2022/10/10 06:18:01;;;;;;;57.07;40.23;;;;;;;11.95;100.00;95531.03;5129700;27;20203;-73
2022/10/10 06:20:28;;;;;;;70.87;42.37;;;;;;;12.06;100.00;95527.81;5128876;27;20203;-73
2022/10/10 06:22:56;;;;;;;67.97;43.50;;;;;;;12.20;100.00;95534.59;5129571;27;20580;-73
2022/10/10 06:25:22;;;;;;;64.10;44.13;;;;;;;12.29;100.00;95529.94;5129658;27;20207;-73
2022/10/10 06:27:49;;;;;;;58.90;42.10;;;;;;;12.42;100.00;95535.88;5124362;27;20685;-73
2022/10/10 06:30:17;;;;;;;66.97;42.17;;;;;;;12.51;100.00;95534.66;5130211;27;20436;-74
2022/10/10 06:32:44;;;;;;;68.30;43.63;;;;;;;12.59;100.00;95538.81;5129673;27;20203;-72
2022/10/10 06:35:11;;;;;;;68.40;43.70;;;;;;;12.64;100.00;95527.78;5129597;27;20203;-73
2022/10/10 06:37:38;;;;;;;64.57;43.93;;;;;;;12.81;100.00;95544.53;5129859;27;20203;-73
2022/10/10 06:40:06;;;;;;;69.20;46.13;;;;;;;12.91;100.00;95545.66;5129909;27;20718;-73
2022/10/10 06:42:33;;;;;;;60.23;42.47;;;;;;;13.02;100.00;95545.00;5129695;27;20590;-74
2022/10/10 06:45:00;;;;;;;68.87;41.70;;;;;;;13.14;100.00;95546.94;5130237;27;20267;-74
2022/10/10 06:47:29;;;;;;;58.00;38.37;;;;;;;13.26;100.00;95550.47;5122010;27;20284;-70
2022/10/10 06:49:57;;;;;;;68.93;41.30;;;;;;;13.36;100.00;95540.38;5128408;27;20200;-74
2022/10/10 06:52:24;;;;;;;59.77;41.20;;;;;;;13.43;100.00;95546.34;5120368;27;20208;-75
2022/10/10 06:54:51;;;;;;;55.57;38.60;;;;;;;13.44;100.00;95548.75;5129051;27;20198;-78
2022/10/10 06:57:18;;;;;;;54.47;39.63;;;;;;;13.54;100.00;95537.78;5132020;27;20276;-79
2022/10/10 06:59:45;;;;;;;57.60;41.17;;;;;;;13.48;100.00;95549.91;5133918;27;20569;-79
2022/10/10 07:02:13;;;;;;;63.33;40.17;;;;;;;13.48;100.00;95543.88;5132038;27;20200;-79
2022/10/10 07:04:42;;;;;;;59.80;39.70;;;;;;;13.65;100.00;95544.94;5132561;27;20252;-82
2022/10/10 07:07:09;;;;;;;61.20;38.07;;;;;;;13.72;100.00;95550.91;5134053;27;20203;-83
2022/10/10 07:09:36;;;;;;;58.30;37.63;;;;;;;13.86;100.00;95548.97;5134174;27;20234;-82
2022/10/10 07:12:03;;;;;;;60.20;38.97;;;;;;;13.91;100.00;95549.91;5134018;27;20199;-82
2022/10/10 07:14:30;;;;;;;53.60;38.23;;;;;;;13.88;100.00;95541.72;5134666;27;20203;-83
2022/10/10 07:16:57;;;;;;;52.57;38.03;;;;;;;13.95;100.00;95545.88;5133750;27;20203;-81
2022/10/10 07:19:24;;;;;;;63.00;38.10;;;;;;;14.03;100.00;95547.38;5134334;27;20655;-83
2022/10/10 07:21:53;;;;;;;51.10;37.33;;;;;;;14.08;100.00;95550.16;5121961;27;20209;-83
2022/10/10 07:24:19;;;;;;;62.80;36.70;;;;;;;14.12;100.00;95543.47;5133181;27;20199;-82
2022/10/10 07:26:46;;;;;;;61.33;37.57;;;;;;;14.23;100.00;95536.75;5127597;27;20207;-78
2022/10/10 07:29:13;;;;;;;49.97;35.77;;;;;;;14.30;100.00;95540.88;5132137;27;20223;-77
2022/10/10 07:31:40;;;;;;;56.87;35.73;;;;;;;14.41;100.00;95541.97;5131740;27;20205;-75
2022/10/10 07:34:07;;;;;;;56.07;34.67;;;;;;;14.45;100.00;95543.16;5132408;27;20275;-76
2022/10/10 07:36:34;;;;;;;51.70;35.43;;;;;;;14.55;100.00;95540.78;5132163;27;20207;-76
2022/10/10 07:39:02;;;;;;;52.17;34.63;;;;;;;14.51;100.00;95540.44;5131131;27;20204;-76
2022/10/10 07:41:29;;;;;;;50.90;35.27;;;;;;;14.58;100.00;95537.72;5127083;27;20635;-77
2022/10/10 07:43:56;;;;;;;51.97;34.37;;;;;;;14.70;100.00;95535.97;5128763;27;20203;-77
2022/10/10 07:46:23;;;;;;;51.20;35.30;;;;;;;14.81;100.00;95524.75;5132442;27;20214;-78
2022/10/10 07:48:50;;;;;;;56.57;34.53;;;;;;;14.94;100.00;95518.53;5131595;27;20701;-76
2022/10/10 07:51:19;;;;;;;47.97;33.23;;;;;;;15.03;100.00;95528.47;5133337;27;20207;-89
2022/10/10 07:53:45;;;;;;;51.73;33.03;;;;;;;15.15;100.00;95518.81;5129485;27;20268;-73
2022/10/10 07:56:14;;;;;;;45.87;31.70;;;;;;;15.05;100.00;95523.81;5131689;27;20207;-73
2022/10/10 07:58:40;;;;;;;47.07;32.77;;;;;;;15.16;100.00;95524.84;5132332;27;20195;-72
2022/10/10 08:01:09;;;;;;;51.40;31.77;;;;;;;15.22;100.00;95522.16;5131389;27;20199;-73
2022/10/10 08:03:36;;;;;;;58.30;31.23;;;;;;;15.29;100.00;95527.28;5132346;27;20204;-73
2022/10/10 08:06:03;;;;;;;49.30;30.80;;;;;;;15.32;100.00;95522.38;5131734;27;20199;-72
2022/10/10 08:08:30;;;;;;;48.20;29.03;;;;;;;15.32;100.00;95518.97;5131597;27;20223;-74
2022/10/10 08:10:57;;;;;;;45.40;27.07;;;;;;;15.42;100.00;95529.69;5131159;27;20207;-73
2022/10/10 08:13:26;;;;;;;49.90;27.17;;;;;;;15.56;99.60;95520.63;5131547;27;20230;-72
2022/10/10 08:15:54;;;;;;;41.37;25.73;;;;;;;15.64;98.82;95522.88;5131780;27;20203;-72
2022/10/10 08:18:20;;;;;;;44.50;25.77;;;;;;;15.73;98.28;95521.53;5132077;27;20636;-71
2022/10/10 08:20:47;;;;;;;35.10;23.13;;;;;;;15.81;97.23;95520.41;5130915;27;20203;-71
2022/10/10 08:23:14;;;;;;;42.03;23.90;;;;;;;15.98;97.08;95531.00;5131248;27;20199;-72
2022/10/10 08:25:41;;;;;;;37.77;23.33;;;;;;;16.15;96.35;95527.44;5131741;27;20587;-71
2022/10/10 08:28:07;;;;;;;38.03;23.47;;;;;;;16.28;96.15;95526.38;5131244;27;20916;-72
2022/10/10 08:30:40;;;;;;;37.07;23.37;;;;;;;16.41;95.85;95526.94;5131011;27;20211;-73
2022/10/10 08:33:07;;;;;;;36.13;21.67;;;;;;;16.57;94.77;95529.88;5131872;27;20291;-72
2022/10/10 08:35:37;;;;;;;36.47;20.73;;;;;;;16.71;93.88;95528.59;5129894;27;20210;-72
2022/10/10 08:38:04;;;;;;;31.77;20.10;;;;;;;16.80;93.28;95535.03;5130844;27;20252;-73
2022/10/10 08:40:32;;;;;;;35.27;19.53;;;;;;;16.80;93.30;95532.41;5131330;27;20611;-72
2022/10/10 08:43:03;;;;;;;29.20;19.00;;;;;;;16.93;92.95;95534.75;5130581;27;20210;-72
2022/10/10 08:45:34;;;;;;;30.10;18.83;;;;;;;17.00;92.15;95530.94;5131766;27;20199;-73
2022/10/10 08:48:07;;;;;;;37.63;19.73;;;;;;;17.14;91.89;95535.94;5131754;27;20231;-72
2022/10/10 08:50:38;;;;;;;31.33;18.70;;;;;;;17.23;91.50;95537.91;5130882;27;20513;-72
2022/10/10 08:53:13;;;;;;;27.00;17.33;;;;;;;17.32;91.71;95533.88;5131371;27;20661;-72
2022/10/10 08:55:43;;;;;;;33.27;17.27;;;;;;;17.45;91.56;95530.13;5130942;27;20199;-72
2022/10/10 08:58:19;;;;;;;26.97;17.40;;;;;;;17.62;91.57;95525.72;5130249;27;20203;-72
2022/10/10 09:00:49;;;;;;;29.63;16.13;;;;;;;17.74;89.24;95539.56;5130631;27;20207;-72
2022/10/10 09:03:26;;;;;;;29.33;16.37;;;;;;;17.82;88.90;95538.34;5131552;27;20199;-86
2022/10/10 09:06:06;;;;;;;28.97;18.20;;;;;;;17.74;88.41;95542.19;5131171;27;20199;-81
2022/10/10 09:08:42;;;;;;;32.33;18.70;;;;;;;17.80;89.31;95540.44;5122453;27;20615;-81
2022/10/10 09:11:20;;;;;;;36.80;16.63;;;;;;;17.95;89.03;95536.19;5121425;27;20195;-82
2022/10/10 09:13:58;;;;;;;22.92;15.68;;;;;;;18.16;88.03;95534.63;5131871;27;20226;-82
2022/10/10 09:16:34;;;;;;;25.52;15.20;;;;;;;18.30;87.47;95535.88;5118080;27;20677;-89
2022/10/10 09:19:14;;;;;;;25.95;15.80;;;;;;;18.39;86.04;95537.03;5130045;27;20199;-85
2022/10/10 09:21:43;;;;;;;22.80;13.25;;;;;;;18.52;86.00;95536.72;5130409;27;20210;-77
2022/10/10 09:24:17;;;;;;;20.08;11.48;;;;;;;18.59;84.38;95544.41;5131260;27;20226;-83
2022/10/10 09:26:49;;;;;;;14.10;10.50;;;;;;;18.72;83.11;95551.94;5126043;27;20761;-79
2022/10/10 09:29:27;;;;;;;19.35;10.10;;;;;;;18.80;83.23;95548.88;5129712;27;20212;-74
2022/10/10 09:32:14;;;;;;;14.02;9.68;;;;;;;18.83;81.87;95550.22;5125471;27;20203;-76
2022/10/10 09:34:48;;;;;;;17.25;9.70;;;;;;;19.00;82.57;95554.38;5125966;27;20291;-76
2022/10/10 09:37:18;;;;;;;11.63;9.15;;;;;;;19.13;80.39;95555.81;5129623;27;20203;-77
2022/10/10 09:39:50;;;;;;;13.13;9.45;;;;;;;19.22;80.86;95556.94;5129382;27;20210;-76
2022/10/10 09:42:22;;;;;;;16.67;8.95;;;;;;;19.25;80.34;95553.81;5129507;27;20202;-78
2022/10/10 09:44:49;;;;;;;19.40;9.73;;;;;;;19.32;80.45;95548.34;5129776;27;20198;-76
2022/10/10 09:47:17;;;;;;;11.73;9.25;;;;;;;19.25;80.88;95549.34;5129203;27;20262;-76
2022/10/10 09:49:45;;;;;;;15.07;9.10;;;;;;;19.24;80.05;95546.97;5129155;27;20707;-75
2022/10/10 09:52:25;;;;;;;15.90;9.05;;;;;;;19.26;79.35;95543.03;5129534;27;20213;-77
2022/10/10 09:54:57;;;;;;;19.73;9.93;;;;;;;19.22;79.35;95549.84;5129845;27;20198;-75
2022/10/10 09:57:28;;;;;;;19.55;9.00;;;;;;;19.26;77.61;95542.22;5130782;27;20203;-76
2022/10/10 09:59:55;;;;;;;15.63;9.15;;;;;;;19.26;78.19;95545.66;5128131;27;20645;-76
2022/10/10 10:02:23;;;;;;;17.40;9.10;;;;;;;19.27;79.13;95544.63;5130383;28;20207;-77
2022/10/10 10:04:53;;;;;;;19.45;12.30;;;;;;;19.25;79.52;95541.44;5130451;27;20199;-76
2022/10/10 10:07:28;;;;;;;19.77;10.85;;;;;;;19.25;79.82;95544.06;5130289;27;20207;-76
2022/10/10 10:09:58;;;;;;;12.45;9.32;;;;;;;19.17;78.51;95543.72;5130190;27;20226;-76
2022/10/10 10:12:27;;;;;;;12.60;9.23;;;;;;;19.17;78.08;95533.19;5130016;27;20669;-77
2022/10/10 10:15:00;;;;;;;10.38;7.90;;;;;;;19.18;78.24;95529.50;5129373;27;20622;-76
2022/10/10 10:17:28;;;;;;;9.95;7.80;;;;;;;19.23;78.21;95532.19;5130026;27;20199;-77
2022/10/10 10:19:56;;;;;;;14.25;9.23;;;;;;;19.26;78.29;95529.84;5130412;27;20198;-77
2022/10/10 10:22:25;;;;;;;13.23;8.05;;;;;;;19.30;77.43;95526.72;5124714;27;20571;-77
2022/10/10 10:24:53;;;;;;;11.88;7.93;;;;;;;19.26;77.54;95531.69;5125631;27;20203;-77
2022/10/10 10:27:22;;;;;;;13.35;8.70;;;;;;;19.24;77.46;95539.84;5126406;27;20697;-77
2022/10/10 10:29:51;;;;;;;14.02;8.43;;;;;;;19.33;77.52;95531.50;5125006;27;20307;-77
2022/10/10 10:32:45;;;;;;;13.25;8.38;;;;;;;19.37;76.91;95530.72;5126396;27;20669;-77
2022/10/10 10:35:20;;;;;;;14.70;9.63;;;;;;;19.43;76.09;95527.13;5131423;27;20195;-78
2022/10/10 10:38:20;;;;;;;13.75;8.63;;;;;;;19.49;76.72;95526.13;5120707;27;20243;-77
2022/10/10 10:40:56;;;;;;;19.42;8.85;;;;;;;19.52;77.04;95519.53;5132962;27;20692;-77
2022/10/10 10:43:54;;;;;;;12.45;8.23;;;;;;;19.55;76.91;95517.19;5133897;27;20213;-77
2022/10/10 10:46:34;;;;;;;19.48;8.20;;;;;;;19.58;76.98;95515.91;5133733;27;20211;-76
2022/10/10 10:49:06;;;;;;;15.60;7.97;;;;;;;19.58;76.71;95521.16;5133384;27;20238;-76
2022/10/10 10:51:59;;;;;;;10.98;7.75;;;;;;;19.55;75.99;95519.03;5133719;27;20203;-76
2022/10/10 10:54:41;;;;;;;12.18;7.60;;;;;;;19.48;75.63;95521.88;5132868;27;20203;-77
2022/10/10 10:57:13;;;;;;;16.35;7.90;;;;;;;19.46;75.13;95516.06;5133658;27;20211;-76
2022/10/10 10:59:53;;;;;;;13.43;7.93;;;;;;;19.43;75.64;95516.56;5129658;27;20316;-79
2022/10/10 11:02:36;;;;;;;12.10;8.05;;;;;;;19.37;77.13;95495.66;5127796;27;20210;-76
2022/10/10 11:05:35;;;;;;;14.73;7.72;;;;;;;19.42;77.91;95487.81;5133602;27;20203;-76
2022/10/10 11:08:37;;;;;;;11.35;8.10;;;;;;;19.50;77.19;95480.25;5133135;27;20230;-78
2022/10/10 11:11:21;;;;;;;14.98;7.60;;;;;;;19.49;76.65;95485.75;5121650;27;20223;-76
2022/10/10 11:13:56;;;;;;;11.02;8.20;;;;;;;19.17;76.55;95489.16;5133363;27;20199;-75
2022/10/10 11:16:29;;;;;;;10.35;8.10;;;;;;;18.86;78.94;95482.03;5127118;27;20889;-76
2022/10/10 11:19:07;;;;;;;12.35;7.93;;;;;;;18.61;80.79;95479.16;5133479;27;20204;-76
2022/10/10 11:21:37;;;;;;;14.75;8.32;;;;;;;18.68;79.64;95479.72;5132214;27;20203;-75
2022/10/10 11:24:10;;;;;;;12.25;8.00;;;;;;;18.77;79.18;95483.50;5133074;27;20202;-76
2022/10/10 11:26:43;;;;;;;15.35;7.90;;;;;;;18.90;79.44;95487.59;5129889;27;20240;-74